Data for 07/31/2009

Time Sea-Level Adjusted Pressure Absolute Pressure Temperature Relative Humidity Dew Point   
(mb) (inHg) (mb) (inHg) (C) (F) (%) (C) (F)
00:05 1019 30.09 848 25.04 14.3 57.7 51 4.4 40
00:10 1019 30.09 848 25.04 14.4 58 50 4.2 39.5
00:15 1019 30.09 848 25.04 14.7 58.5 50 4.4 40
00:20 1019 30.09 848 25.04 14.4 58 53 5.1 41.2
00:25 1019 30.09 848 25.04 13.8 56.9 54 4.8 40.7
00:30 1019 30.09 848 25.04 13.7 56.7 55 4.9 40.8
00:35 1019 30.09 848 25.04 13.8 56.8 53 4.5 40.2
00:40 1019 30.09 848 25.04 13.7 56.6 54 4.5 40.1
00:45 1019 30.09 848 25.04 13.5 56.2 54 4.5 40.2
00:50 1019 30.09 848 25.04 13.4 56.1 55 4.5 40.1
00:55 1019 30.09 848 25.04 13.3 55.9 54 4.3 39.8
01:00 1019 30.09 848 25.04 13.2 55.8 55 4.3 39.8
01:05 1019 30.09 848 25.04 13.3 55.9 54 4.2 39.6
01:10 1019 30.09 848 25.04 13.6 56.4 52 4.1 39.4
01:15 1019 30.09 848 25.04 13.6 56.5 53 4.3 39.8
01:20 1019 30.09 848 25.04 13.8 56.8 51 4 39.2
01:25 1019 30.09 848 25.04 13.9 57 51 3.9 39.1
01:30 1018 30.06 848 25.04 13.9 57 52 4.3 39.7
01:35 1018 30.06 848 25.04 13.6 56.5 53 4.2 39.6
01:40 1019 30.09 848 25.04 13.4 56.1 54 4.5 40.1
01:45 1018 30.06 848 25.04 13 55.4 56 4.6 40.3
01:50 1018 30.06 848 25.04 12.6 54.7 58 4.7 40.4
01:55 1019 30.09 848 25.04 12.4 54.3 59 4.6 40.2
02:00 1019 30.09 848 25.04 12.3 54.1 59 4.4 40
02:05 1018 30.06 848 25.04 12.3 54.1 59 4.5 40
02:10 1018 30.06 848 25.04 12.3 54.1 58 4.3 39.7
02:15 1018 30.06 848 25.04 12.5 54.4 56 4.1 39.4
02:20 1018 30.06 848 25.04 12.9 55.1 54 3.9 39
02:25 1018 30.06 848 25.04 13.3 55.9 53 4 39.1
02:30 1018 30.06 848 25.04 13.5 56.3 51 3.7 38.7
02:35 1018 30.06 848 25.04 13.8 56.8 52 4.1 39.3
02:40 1018 30.06 848 25.04 13.8 56.8 51 4 39.2
02:45 1018 30.06 848 25.04 13.7 56.7 53 4.5 40.1
02:50 1018 30.06 848 25.04 13.4 56.1 54 4.3 39.7
02:55 1018 30.06 848 25.04 13.4 56.1 54 4.4 39.9
03:00 1018 30.06 848 25.04 13.1 55.5 55 4.3 39.7
03:05 1018 30.06 848 25.04 12.8 55.1 56 4.3 39.7
03:10 1018 30.06 848 25.04 12.8 55.1 55 4.2 39.5
03:15 1018 30.06 848 25.04 12.5 54.4 60 4.9 40.8
03:20 1018 30.06 848 25.04 12 53.6 61 4.6 40.4
03:25 1018 30.06 848 25.04 11.8 53.2 62 4.7 40.4
03:30 1018 30.06 848 25.04 11.8 53.2 60 4.3 39.7
03:35 1018 30.06 848 25.04 12.1 53.8 58 4.1 39.4
03:40 1018 30.06 848 25.04 12.6 54.6 56 4.1 39.3
03:45 1018 30.06 848 25.04 12.6 54.7 57 4.3 39.7
03:50 1018 30.06 848 25.04 12.6 54.7 57 4.3 39.7
03:55 1018 30.06 848 25.04 12.6 54.7 56 4.3 39.7
04:00 1018 30.06 848 25.04 12.6 54.6 58 4.5 40
04:05 1018 30.06 848 25.04 12.3 54.1 59 4.6 40.2
04:10 1018 30.06 848 25.04 12.1 53.7 59 4.4 39.9
04:15 1018 30.06 848 25.04 12 53.7 60 4.5 40
04:20 1018 30.06 848 25.04 12.1 53.9 58 4.1 39.4
04:25 1018 30.06 848 25.04 12.5 54.5 56 4.1 39.4
04:30 1018 30.06 848 25.04 12.7 54.9 56 4.2 39.5
04:35 1018 30.06 848 25.04 12.7 54.9 56 4.3 39.7
04:40 1019 30.09 848 25.04 12.7 54.8 56 4.1 39.4
04:45 1019 30.09 848 25.04 12.7 54.8 56 4.2 39.6
04:50 1019 30.09 848 25.04 12.7 54.8 56 4.1 39.4
04:55 1019 30.09 848 25.04 12.5 54.5 59 4.8 40.6
05:00 1019 30.09 848 25.04 12 53.6 62 4.9 40.9
05:05 1019 30.09 848 25.04 11.9 53.5 60 4.5 40.1
05:10 1019 30.09 848 25.04 12.1 53.7 61 4.7 40.5
05:15 1019 30.09 848 25.04 11.8 53.3 63 5 40.9
05:20 1019 30.09 848 25.04 11.8 53.2 62 4.9 40.8
05:25 1019 30.09 848 25.04 11.6 52.8 63 4.8 40.6
05:30 1019 30.09 848 25.04 11.4 52.4 65 5 41
05:35 1019 30.09 848 25.04 11.2 52.1 65 4.9 40.9
05:40 1019 30.09 848 25.04 11 51.7 67 5 41
05:45 1019 30.09 848 25.04 10.6 51 70 5.3 41.6
05:50 1019 30.09 848 25.04 10 49.9 71 5 41
05:55 1019 30.09 849 25.07 10 50.1 71 5 40.9
06:00 1020 30.12 849 25.07 10.3 50.6 70 5.2 41.3
06:05 1020 30.12 849 25.07 10.3 50.5 71 5.3 41.6
06:10 1020 30.12 849 25.07 10.3 50.6 67 4.6 40.2
06:15 1020 30.12 849 25.07 10.9 51.5 68 5.2 41.4
06:20 1020 30.12 849 25.07 10.8 51.4 68 5.2 41.3
06:25 1020 30.12 850 25.1 10.8 51.4 68 5.2 41.3
06:30 1020 30.12 850 25.1 10.8 51.5 67 5.1 41.1
06:35 1020 30.12 850 25.1 11 51.7 67 5.1 41.2
06:40 1020 30.12 850 25.1 10.9 51.6 68 5.3 41.6
06:45 1020 30.12 850 25.1 10.6 51.2 70 5.4 41.7
06:50 1020 30.12 850 25.1 10.7 51.2 70 5.5 41.9
06:55 1020 30.12 850 25.1 11 51.8 69 5.6 42.1
07:00 1020 30.12 850 25.1 11.6 52.8 67 5.6 42.1
07:05 1021 30.15 850 25.1 11.9 53.5 67 5.9 42.7
07:10 1021 30.15 850 25.1 12 53.5 67 6.1 43.1
07:15 1021 30.15 850 25.1 12.1 53.7 67 6.2 43.1
07:20 1021 30.15 850 25.1 12.2 54 67 6.4 43.5
07:25 1021 30.15 850 25.1 12.4 54.3 68 6.6 43.9
07:30 1021 30.15 850 25.1 12.4 54.4 69 6.9 44.4
07:35 1021 30.15 850 25.1 12.4 54.4 68 6.7 44.1
07:40 1021 30.15 850 25.1 12.6 54.7 68 6.8 44.3
07:45 1021 30.15 850 25.1 12.8 55 68 7 44.6
07:50 1021 30.15 850 25.1 13 55.4 68 7.3 45.2
07:55 1021 30.15 851 25.13 13 55.3 69 7.4 45.3
08:00 1022 30.18 851 25.13 13 55.4 70 7.6 45.7
08:05 1022 30.18 851 25.13 13.1 55.5 70 7.8 46.1
08:10 1022 30.18 851 25.13 13 55.4 69 7.6 45.6
08:15 1022 30.18 851 25.13 12.7 54.8 72 7.7 45.9
08:20 1022 30.18 851 25.13 12.2 54 77 8.4 47.1
08:25 1022 30.18 851 25.13 12.1 53.8 79 8.5 47.3
08:30 1022 30.18 851 25.13 12.1 53.8 79 8.7 47.6
08:35 1022 30.18 851 25.13 12.1 53.7 81 8.9 47.9
08:40 1022 30.18 852 25.16 12.1 53.8 80 8.9 48
08:45 1022 30.18 852 25.16 12.2 54 79 8.8 47.8
08:50 1022 30.18 852 25.16 12.2 54 78 8.5 47.4
08:55 1022 30.18 852 25.16 12.2 54 80 8.9 48.1
09:00 1023 30.21 852 25.16 12.1 53.9 82 9.2 48.6
09:05 1023 30.21 852 25.16 12.3 54.2 81 9.1 48.5
09:10 1023 30.21 852 25.16 12.6 54.7 83 9.8 49.6
09:15 1023 30.21 852 25.16 12.7 54.9 81 9.6 49.3
09:20 1023 30.21 852 25.16 12.9 55.1 83 10.1 50.3
09:25 1023 30.21 852 25.16 12.9 55.1 84 10.2 50.3
09:30 1023 30.21 852 25.16 12.8 55 86 10.5 50.8
09:35 1023 30.21 852 25.16 12.8 55 86 10.4 50.7
09:40 1023 30.21 852 25.16 12.8 55.1 85 10.4 50.7
09:45 1023 30.21 852 25.16 12.7 54.9 85 10.3 50.5
09:50 1023 30.21 852 25.16 12.7 54.9 87 10.7 51.2
09:55 1023 30.21 853 25.19 12.7 54.9 87 10.5 51
10:00 1023 30.21 853 25.19 12.6 54.8 87 10.6 51.1
10:05 1024 30.24 853 25.19 12.6 54.7 89 10.9 51.6
10:10 1023 30.21 853 25.19 12.6 54.7 88 10.6 51.2
10:15 1023 30.21 853 25.19 12.4 54.2 90 10.8 51.4
10:20 1023 30.21 853 25.19 12.2 54 91 10.7 51.3
10:25 1023 30.21 853 25.19 12.2 53.9 92 10.9 51.6
10:30 1023 30.21 853 25.19 12.5 54.5 88 10.6 51.1
10:35 1024 30.24 853 25.19 12.6 54.6 90 10.9 51.6
10:40 1024 30.24 853 25.19 12.9 55.1 85 10.4 50.8
10:45 1024 30.24 853 25.19 12.6 54.7 88 10.6 51.1
10:50 1024 30.24 853 25.19 12.7 54.8 87 10.6 51.1
10:55 1024 30.24 853 25.19 13.1 55.5 84 10.5 50.9
11:00 1024 30.24 853 25.19 12.9 55.3 85 10.5 50.9
11:05 1024 30.24 853 25.19 12.9 55.3 85 10.5 50.8
11:10 1024 30.24 853 25.19 12.7 54.8 87 10.5 50.9
11:15 1024 30.24 853 25.19 13 55.4 85 10.5 51
11:20 1024 30.24 853 25.19 13 55.5 83 10.3 50.6
11:25 1024 30.24 853 25.19 13.1 55.5 84 10.5 50.9
11:30 1024 30.24 853 25.19 13.1 55.7 84 10.6 51
11:35 1024 30.24 853 25.19 13.4 56.2 84 10.8 51.4
11:40 1024 30.24 853 25.19 13.8 56.8 84 11.2 52.1
11:45 1024 30.24 853 25.19 14.2 57.6 81 11 51.8
11:50 1024 30.24 853 25.19 14.4 57.8 83 11.5 52.6
11:55 1024 30.24 853 25.19 14.3 57.7 80 11 51.7
12:00 1024 30.24 853 25.19 14 57.1 79 10.5 50.9
12:05 1024 30.24 853 25.19 14.2 57.5 79 10.5 50.9
12:10 1024 30.24 853 25.19 14.6 58.2 76 10.4 50.8
12:15 1024 30.24 853 25.19 14.9 58.7 74 10.4 50.7
12:20 1024 30.24 853 25.19 14.5 58.1 75 10.2 50.4
12:25 1024 30.24 853 25.19 14 57.2 77 10.2 50.3
12:30 1024 30.24 853 25.19 14.1 57.4 74 9.7 49.4
12:35 1024 30.24 853 25.19 14.1 57.4 75 9.7 49.5
12:40 1024 30.24 853 25.19 14.4 58 70 9.1 48.4
12:45 1024 30.24 853 25.19 14.7 58.4 71 9.6 49.3
12:50 1024 30.24 853 25.19 14.6 58.3 70 9.2 48.6
12:55 1024 30.24 853 25.19 14.7 58.4 69 9.1 48.4
13:00 1024 30.24 853 25.19 15.1 59.1 68 9.3 48.8
13:05 1024 30.24 853 25.19 15.1 59.3 66 9 48.1
13:10 1024 30.24 853 25.19 15.4 59.7 67 9.5 49.1
13:15 1024 30.24 853 25.19 15.8 60.5 64 9.2 48.5
13:20 1024 30.24 853 25.19 15.4 59.7 67 9.3 48.8
13:25 1024 30.24 853 25.19 15.5 59.8 66 9.2 48.6
13:30 1024 30.24 853 25.19 15.5 60 65 9.1 48.3
13:35 1024 30.24 853 25.19 15.9 60.7 65 9.5 49
13:40 1024 30.24 853 25.19 16.4 61.5 62 9.2 48.5
13:45 1024 30.24 853 25.19 17.1 62.8 59 9.2 48.5
13:50 1024 30.24 853 25.19 17.3 63.1 59 9.2 48.6
13:55 1024 30.24 853 25.19 16.9 62.5 60 9.2 48.6
14:00 1024 30.24 853 25.19 17.5 63.5 59 9.4 48.9
14:05 1024 30.24 853 25.19 17.5 63.6 59 9.5 49.2
14:10 1024 30.24 853 25.19 17.9 64.2 58 9.5 49
14:15 1024 30.24 853 25.19 17.3 63.2 58 9.1 48.4
14:20 1024 30.24 853 25.19 16.8 62.2 59 8.9 48
14:25 1024 30.24 853 25.19 17.9 64.2 55 8.9 48
14:30 1024 30.24 853 25.19 18.5 65.3 52 8.7 47.7
14:35 1024 30.24 853 25.19 19.5 67 50 8.8 47.9
14:40 1024 30.24 853 25.19 18.8 65.9 54 9.5 49.2
14:45 1024 30.24 853 25.19 18.5 65.4 52 8.6 47.4
14:50 1024 30.24 853 25.19 19.9 67.9 49 9.1 48.3
14:55 1024 30.24 853 25.19 19.8 67.6 49 8.8 47.9
15:00 1024 30.24 853 25.19 20.2 68.3 47 8.8 47.8
15:05 1024 30.24 853 25.19 20.1 68.2 52 10 49.9
15:10 1024 30.24 853 25.19 19.2 66.5 51 9 48.2
15:15 1024 30.24 853 25.19 19.5 67.1 48 8.4 47.2
15:20 1024 30.24 853 25.19 20 67.9 47 8.4 47.1
15:25 1024 30.24 853 25.19 20.5 69 47 8.9 48.1
15:30 1024 30.24 853 25.19 20.6 69 45 8.3 46.9
15:35 1024 30.24 853 25.19 21 69.9 43 8.2 46.8
15:40 1024 30.24 853 25.19 21.7 71 45 9.2 48.6
15:45 1024 30.24 853 25.19 21.1 69.9 46 9.3 48.7
15:50 1024 30.24 853 25.19 20.4 68.6 48 9.3 48.7
15:55 1024 30.24 853 25.19 20.4 68.8 43 7.8 46
16:00 1024 30.24 853 25.19 20.5 68.9 44 8 46.4
16:05 1024 30.24 853 25.19 21.1 69.9 41 7.4 45.4
16:10 1024 30.24 853 25.19 21.6 71 39 7.4 45.4
16:15 1024 30.24 853 25.19 21.8 71.2 42 8.5 47.3
16:20 1024 30.24 853 25.19 21.6 70.8 42 8.4 47.1
16:25 1024 30.24 853 25.19 20.8 69.5 44 8.3 46.9
16:30 1024 30.24 853 25.19 21.6 70.9 41 8 46.3
16:35 1024 30.24 853 25.19 20.7 69.2 42 7.3 45.1
16:40 1024 30.24 853 25.19 20.2 68.3 43 7.3 45.2
16:45 1024 30.24 853 25.19 20.3 68.5 43 7.5 45.6
16:50 1024 30.24 853 25.19 21.6 70.9 40 7.4 45.4
16:55 1024 30.24 853 25.19 22 71.5 40 7.9 46.3
17:00 1024 30.24 853 25.19 22 71.6 40 7.8 46.1
17:05 1023 30.21 853 25.19 22 71.6 41 8.2 46.7
17:10 1023 30.21 853 25.19 21.8 71.2 39 7.4 45.3
17:15 1023 30.21 853 25.19 22.2 71.9 36 6.8 44.2
17:20 1023 30.21 853 25.19 22.3 72.1 37 7 44.7
17:25 1023 30.21 853 25.19 21.8 71.2 37 6.8 44.2
17:30 1023 30.21 853 25.19 21.9 71.3 38 7 44.6
17:35 1023 30.21 853 25.19 21.9 71.5 36 6.5 43.8
17:40 1023 30.21 853 25.19 22.1 71.7 35 6.2 43.1
17:45 1023 30.21 852 25.16 22.6 72.7 33 5.9 42.6
17:50 1023 30.21 852 25.16 22.2 72 34 5.9 42.5
17:55 1023 30.21 852 25.16 22.1 71.7 35 6 42.7
18:00 1023 30.21 852 25.16 22.4 72.2 32 5.1 41.2
18:05 1023 30.21 852 25.16 22.6 72.7 32 5.3 41.5
18:10 1023 30.21 852 25.16 22.7 72.9 32 5.2 41.4
18:15 1023 30.21 852 25.16 22.4 72.4 35 6.5 43.7
18:20 1023 30.21 852 25.16 21.3 70.4 36 5.7 42.2
18:25 1023 30.21 852 25.16 20.6 69.1 37 5.8 42.4
18:30 1023 30.21 852 25.16 20.2 68.4 38 5.6 42
18:35 1023 30.21 852 25.16 20.4 68.8 36 5.2 41.3
18:40 1023 30.21 852 25.16 20.5 68.8 36 5 41
18:45 1023 30.21 852 25.16 20.9 69.5 37 5.6 42.2
18:50 1023 30.21 852 25.16 20.7 69.3 35 4.9 40.8
18:55 1023 30.21 852 25.16 20.8 69.4 36 5.4 41.8
19:00 1023 30.21 852 25.16 20.6 69.1 38 5.9 42.6
19:05 1023 30.21 852 25.16 20.2 68.4 38 5.6 42.1
19:10 1023 30.21 852 25.16 20.2 68.3 38 5.4 41.7
19:15 1023 30.21 852 25.16 19.8 67.7 37 4.9 40.8
19:20 1023 30.21 852 25.16 19.7 67.4 38 5.1 41.1
19:25 1023 30.21 852 25.16 19.7 67.5 40 5.9 42.6
19:30 1023 30.21 852 25.16 19.7 67.4 39 5.3 41.6
19:35 1023 30.21 852 25.16 19.7 67.4 40 5.9 42.6
19:40 1023 30.21 852 25.16 19.8 67.6 39 5.6 42.1
19:45 1023 30.21 852 25.16 19.8 67.6 39 5.6 42.1
19:50 1023 30.21 852 25.16 19.7 67.5 42 6.5 43.7
19:55 1023 30.21 852 25.16 19.8 67.6 40 6 42.8
20:00 1023 30.21 852 25.16 19.8 67.6 42 6.6 43.9
20:05 1023 30.21 852 25.16 19.7 67.4 42 6.6 43.8
20:10 1023 30.21 852 25.16 19.6 67.3 41 6.2 43.2
20:15 1023 30.21 852 25.16 19.6 67.3 40 5.8 42.5
20:20 1023 30.21 852 25.16 19.5 67.2 41 6.2 43.1
20:25 1023 30.21 852 25.16 19.5 67.2 40 5.9 42.6
20:30 1023 30.21 852 25.16 19.6 67.2 41 6.1 43
20:35 1023 30.21 852 25.16 19.4 66.9 43 6.7 44
20:40 1023 30.21 852 25.16 19.2 66.6 46 7.4 45.4
20:45 1023 30.21 852 25.16 19 66.2 47 7.7 45.9
20:50 1023 30.21 852 25.16 18.8 65.8 50 8.2 46.8
20:55 1023 30.21 852 25.16 18.4 65 55 9.3 48.8
21:00 1023 30.21 852 25.16 17.3 63.1 58 8.9 48.1
21:05 1023 30.21 852 25.16 16.9 62.4 60 9 48.3
21:10 1023 30.21 852 25.16 16.6 62 60 8.8 47.9
21:15 1023 30.21 852 25.16 16.1 61 63 9.1 48.4
21:20 1023 30.21 852 25.16 15.7 60.2 64 9 48.2
21:25 1023 30.21 852 25.16 15.5 59.9 65 9 48.2
21:30 1023 30.21 852 25.16 15.2 59.3 66 8.9 48.1
21:35 1023 30.21 852 25.16 14.7 58.4 70 9.3 48.7
21:40 1023 30.21 852 25.16 14.5 58 69 9 48.2
21:45 1023 30.21 853 25.19 14.8 58.6 66 8.6 47.4
21:50 1023 30.21 853 25.19 15 58.9 62 7.7 45.9
21:55 1023 30.21 853 25.19 15 59 63 8.2 46.7
22:00 1023 30.21 853 25.19 14.8 58.6 62 7.7 45.9
22:05 1024 30.24 853 25.19 14.6 58.2 64 8 46.3
22:10 1024 30.24 853 25.19 14.4 57.9 65 7.9 46.3
22:15 1024 30.24 853 25.19 14.2 57.6 64 7.6 45.7
22:20 1024 30.24 853 25.19 14.1 57.4 65 7.7 45.8
22:25 1024 30.24 853 25.19 13.9 57.1 65 7.6 45.6
22:30 1024 30.24 853 25.19 13.8 56.8 66 7.6 45.7
22:35 1024 30.24 853 25.19 13.7 56.6 67 7.7 45.8
22:40 1024 30.24 853 25.19 13.5 56.2 67 7.6 45.7
22:45 1024 30.24 853 25.19 13.4 56 67 7.3 45.2
22:50 1024 30.24 853 25.19 13.5 56.3 66 7.3 45.1
22:55 1023 30.21 853 25.19 13.5 56.2 67 7.5 45.4
23:00 1023 30.21 853 25.19 13.2 55.8 68 7.5 45.5
23:05 1023 30.21 853 25.19 13.1 55.5 69 7.5 45.6
23:10 1023 30.21 853 25.19 13.1 55.5 67 7.2 45
23:15 1023 30.21 853 25.19 13.2 55.8 68 7.5 45.5
23:20 1023 30.21 853 25.19 12.8 55 71 7.6 45.7
23:25 1023 30.21 853 25.19 12.4 54.2 71 7.4 45.2
23:30 1023 30.21 853 25.19 12.4 54.3 71 7.4 45.3
23:35 1023 30.21 852 25.16 12.1 53.7 72 7.3 45.1
23:40 1023 30.21 852 25.16 12 53.6 72 7.1 44.9
23:45 1023 30.21 852 25.16 12.1 53.7 71 7.1 44.7
23:50 1023 30.21 852 25.16 12.1 53.8 71 7.1 44.7
23:55 1023 30.21 852 25.16 12.1 53.8 72 7.2 44.9
24:00 1023 30.21 852 25.16 12.2 53.9 72 7.2 45